Česky Dansk Deutsch English Español Suomi Français Magyar Italiano Nederlands norsk Polski Português svenska Türkçe

 

Het Weer

St-Dizier (Frankrijk)

07:00, 23 augustus 2016 (GMT)

NWNNE
WE
SWSSE
Home            
St-Dizier Toul / Rosieres Chalons-Vatry Suippes Range Met Troyes Nancy / Ochey Chatillon-Sur-Seine Nancy / Essey Reims Metz / Frescaty Metz-Nancy-Lorraine Charleville Auxerre Bertrix Bel-Afb Luxeuil Luxembourg / Luxembourg Dijon St-Hubert Melun Besancon Saarbruecken / Ensheim Paris-Aeroport Charles De Gaulle Florennes

Om een weerknop op uw website of weblog te plaatsen, copieer onderstaande code en plak die in uw pagina. In het eerste vakje staat HTML-code, in het tweede vakje UBB-code.


Add to Google

Details

Wind speed:2 bf, 5 kn, 2.6 m/s, 5.8 miles/h, 9.3 km/h
Wind direction:E, 100°
Visibility:Greater than 10000 m, 10 km, 32800 ft, 6.2 miles
Clouds:CAVOC
Temperature:19°C, 66°F
Dew-point:15°C, 59°F
Atmospheric pressure:1026 hPa, 769.6 mmHg, 30.30 inHg, 1.013 atm
Relative humidity:77.6 %
METAR:LFSI 230700Z AUTO 10005KT CAVOK 19/15 Q1026

Snelkoppelingen

Actuele weersinformatie van de hele wereld. Voeg locaties toe met het plus (+) symbool. Deze snelkoppelingen kunnen worden toegevoegd aan Google.

Lid van de Technetium groep

website free tracking
StatCounter NetStat W3C Validator

16-05-2022 08:25:07
astro.technetium.be money.technetium.be phote.technetium.be tafeltennistafel.technetium.be www.ligfiets.net